createdAt,value
2022-09-21T00:01:43.117Z,25.30
2022-09-21T00:04:11.988Z,25.30
2022-09-21T00:06:40.929Z,25.40
2022-09-21T00:09:10.610Z,25.40
2022-09-21T00:11:39.542Z,25.40
2022-09-21T00:14:13.346Z,25.40
2022-09-21T00:16:45.475Z,25.50
2022-09-21T00:19:14.572Z,25.50
2022-09-21T00:21:43.486Z,25.50
2022-09-21T00:24:13.500Z,25.60
2022-09-21T00:26:42.415Z,25.60
2022-09-21T00:29:12.309Z,25.60
2022-09-21T00:31:41.405Z,25.70
2022-09-21T00:34:10.352Z,25.70
2022-09-21T00:36:39.335Z,25.80
2022-09-21T00:39:08.236Z,25.80
2022-09-21T00:41:37.353Z,25.90
2022-09-21T00:44:18.195Z,25.90
2022-09-21T00:46:49.417Z,26.00
2022-09-21T00:49:19.212Z,26.10
2022-09-21T00:51:49.436Z,26.20
2022-09-21T00:54:45.528Z,26.30
2022-09-21T00:57:16.986Z,26.30
2022-09-21T00:59:47.108Z,26.40
2022-09-21T01:02:16.958Z,26.50
2022-09-21T01:04:47.311Z,26.60
2022-09-21T01:07:21.190Z,26.60
2022-09-21T01:09:51.562Z,26.70
2022-09-21T01:13:05.067Z,26.70
2022-09-21T01:15:56.600Z,26.80
2022-09-21T01:18:35.311Z,26.80
2022-09-21T01:21:21.058Z,26.90
2022-09-21T01:24:22.339Z,26.90
2022-09-21T01:27:06.608Z,27.00
2022-09-21T01:29:55.504Z,27.10
2022-09-21T01:32:45.730Z,27.20
2022-09-21T01:35:23.921Z,27.20
2022-09-21T01:37:59.451Z,27.30
2022-09-21T01:40:39.572Z,27.40
2022-09-21T01:43:14.212Z,27.50
2022-09-21T01:45:47.632Z,27.60
2022-09-21T01:48:17.347Z,27.60
2022-09-21T01:50:52.010Z,27.70
2022-09-21T01:53:59.213Z,27.70
2022-09-21T01:56:37.609Z,27.80
2022-09-21T01:59:31.831Z,27.90
2022-09-21T02:02:11.220Z,27.90
2022-09-21T02:04:40.767Z,28.10
2022-09-21T02:07:10.345Z,28.20
2022-09-21T02:09:39.861Z,28.40
2022-09-21T02:12:08.764Z,28.50
2022-09-21T02:14:39.196Z,28.60
2022-09-21T02:17:21.639Z,28.70
2022-09-21T02:19:59.645Z,28.80
2022-09-21T02:22:34.590Z,28.90
2022-09-21T02:25:43.325Z,28.90
2022-09-21T02:28:33.748Z,28.90
2022-09-21T02:31:38.351Z,28.90
2022-09-21T02:34:33.336Z,28.80
2022-09-21T02:37:26.769Z,28.90
2022-09-21T02:40:23.918Z,28.90
2022-09-21T02:42:57.395Z,29.00
2022-09-21T02:45:36.795Z,29.10
2022-09-21T02:48:22.081Z,29.20
2022-09-21T02:50:55.503Z,29.30
2022-09-21T02:53:32.071Z,29.50
2022-09-21T02:56:06.225Z,29.60
2022-09-21T02:58:40.574Z,29.70
2022-09-21T03:01:13.739Z,29.80
2022-09-21T03:03:43.191Z,29.80
2022-09-21T03:06:12.247Z,29.80
2022-09-21T03:08:41.157Z,29.90
2022-09-21T03:11:11.985Z,29.90
2022-09-21T03:13:41.162Z,29.90
2022-09-21T03:16:10.204Z,30.00
2022-09-21T03:18:40.474Z,30.10
2022-09-21T03:21:10.577Z,30.20
2022-09-21T03:23:39.747Z,30.40
2022-09-21T03:26:09.556Z,30.60
2022-09-21T03:28:38.617Z,30.80
2022-09-21T03:31:08.080Z,31.00
2022-09-21T03:33:36.994Z,31.10
2022-09-21T03:36:06.061Z,31.40
2022-09-21T03:38:35.155Z,31.70
2022-09-21T03:41:04.168Z,31.90
2022-09-21T03:43:33.371Z,32.10
2022-09-21T03:46:02.371Z,32.40
2022-09-21T03:48:33.685Z,32.60
2022-09-21T03:51:02.598Z,32.80
2022-09-21T03:53:31.481Z,32.80
2022-09-21T03:56:00.406Z,32.70
2022-09-21T03:58:29.277Z,32.60
2022-09-21T04:01:04.606Z,32.50
2022-09-21T04:03:33.473Z,32.40
2022-09-21T04:06:02.790Z,32.30
2022-09-21T04:08:34.592Z,32.20
2022-09-21T04:11:03.620Z,32.10
2022-09-21T04:13:32.454Z,32.00
2022-09-21T04:16:01.381Z,32.00
2022-09-21T04:18:30.471Z,32.00
2022-09-21T04:20:59.605Z,32.10
2022-09-21T04:23:28.726Z,32.10
2022-09-21T04:25:59.123Z,32.10
2022-09-21T04:28:28.096Z,32.20
2022-09-21T04:30:57.002Z,32.30
2022-09-21T04:33:25.921Z,32.30
2022-09-21T04:35:58.283Z,32.40
2022-09-21T04:38:27.186Z,32.50
2022-09-21T04:40:59.757Z,32.60
2022-09-21T04:43:28.793Z,32.70
2022-09-21T04:45:57.742Z,32.80
2022-09-21T04:48:26.823Z,32.90
2022-09-21T04:50:55.718Z,33.10
2022-09-21T04:53:24.884Z,33.10
2022-09-21T04:55:53.824Z,33.20
2022-09-21T04:58:24.618Z,33.20
2022-09-21T05:00:56.257Z,33.30
2022-09-21T05:03:26.313Z,33.40
2022-09-21T05:05:57.645Z,33.50
2022-09-21T05:08:46.291Z,33.60
2022-09-21T05:11:17.629Z,33.80
2022-09-21T05:13:47.186Z,34.00
2022-09-21T05:16:17.546Z,34.20
2022-09-21T05:18:47.308Z,34.40
2022-09-21T05:21:17.004Z,34.50
2022-09-21T05:23:45.965Z,34.60
2022-09-21T05:26:14.993Z,34.70
2022-09-21T05:28:44.226Z,34.70
2022-09-21T05:31:25.362Z,34.70
2022-09-21T05:33:59.725Z,34.70
2022-09-21T05:36:47.069Z,34.60
2022-09-21T05:39:16.309Z,34.60
2022-09-21T05:41:45.596Z,34.50
2022-09-21T05:44:16.257Z,34.50
2022-09-21T05:46:56.185Z,34.50
2022-09-21T05:49:40.539Z,34.50
2022-09-21T05:52:14.758Z,34.40
2022-09-21T05:55:05.448Z,34.30
2022-09-21T05:57:56.455Z,34.30
2022-09-21T06:00:26.044Z,34.30
2022-09-21T06:03:31.919Z,34.30
2022-09-21T06:06:01.002Z,34.30
2022-09-21T06:08:30.145Z,34.40
2022-09-21T06:10:59.747Z,34.50
2022-09-21T06:13:28.814Z,34.60
2022-09-21T06:15:58.195Z,34.70
2022-09-21T06:18:27.072Z,34.70
2022-09-21T06:20:56.026Z,34.90
2022-09-21T06:23:24.861Z,34.90
2022-09-21T06:25:58.499Z,34.90
2022-09-21T06:28:29.080Z,34.80
2022-09-21T06:30:59.568Z,34.80
2022-09-21T06:33:28.611Z,34.90
2022-09-21T06:36:01.790Z,34.90
2022-09-21T06:38:30.855Z,34.90
2022-09-21T06:41:04.198Z,34.90
2022-09-21T06:43:33.419Z,35.00
2022-09-21T06:46:04.043Z,34.90
2022-09-21T06:48:35.552Z,35.00
2022-09-21T06:51:06.999Z,35.00
2022-09-21T06:53:36.358Z,34.90
2022-09-21T06:56:10.044Z,34.90
2022-09-21T06:58:39.534Z,34.90
2022-09-21T07:01:12.834Z,35.00
2022-09-21T07:03:42.276Z,35.10
2022-09-21T07:06:16.781Z,35.20
2022-09-21T07:11:34.781Z,35.30
2022-09-21T07:14:05.410Z,35.40
2022-09-21T07:16:34.758Z,35.40
2022-09-21T07:19:11.171Z,35.40
2022-09-21T07:21:40.520Z,35.40
2022-09-21T07:24:12.192Z,35.30
2022-09-21T07:26:41.814Z,35.30
2022-09-21T07:29:10.906Z,35.20
2022-09-21T07:31:40.043Z,35.20
2022-09-21T07:34:09.289Z,35.10
2022-09-21T07:36:38.489Z,35.20
2022-09-21T07:39:07.438Z,35.10
2022-09-21T07:41:36.588Z,35.10
2022-09-21T07:44:05.646Z,35.00
2022-09-21T07:46:34.703Z,35.00
2022-09-21T07:49:05.554Z,35.00
2022-09-21T07:51:34.674Z,35.00
2022-09-21T07:54:04.138Z,35.10
2022-09-21T07:56:33.107Z,35.10
2022-09-21T07:59:08.113Z,35.00
2022-09-21T08:01:39.628Z,35.10
2022-09-21T08:04:12.702Z,35.00
2022-09-21T08:06:41.699Z,35.00
2022-09-21T08:09:10.644Z,35.00
2022-09-21T08:11:40.259Z,35.00
2022-09-21T08:14:09.307Z,34.90
2022-09-21T08:16:40.135Z,34.80
2022-09-21T08:19:09.119Z,34.80
2022-09-21T08:21:38.056Z,34.70
2022-09-21T08:24:07.284Z,34.60
2022-09-21T08:26:36.400Z,34.50
2022-09-21T08:29:06.088Z,34.40
2022-09-21T08:31:35.277Z,34.40
2022-09-21T08:34:04.218Z,34.40
2022-09-21T08:36:33.382Z,34.40
2022-09-21T08:39:05.049Z,34.40
2022-09-21T08:42:11.126Z,34.40
2022-09-21T08:44:55.339Z,34.30
2022-09-21T08:47:30.763Z,34.30
2022-09-21T08:50:03.412Z,34.20
2022-09-21T08:52:34.461Z,34.10
2022-09-21T08:55:20.236Z,34.10
2022-09-21T08:57:49.294Z,34.00
2022-09-21T09:00:20.349Z,33.90
2022-09-21T09:03:08.361Z,33.80
2022-09-21T09:06:01.481Z,33.70
2022-09-21T09:09:00.415Z,33.60
2022-09-21T09:11:54.126Z,33.50
2022-09-21T09:15:10.784Z,33.40
2022-09-21T09:18:09.733Z,33.30
2022-09-21T09:20:43.434Z,33.30
2022-09-21T09:23:27.098Z,33.20
2022-09-21T09:26:02.825Z,33.20
2022-09-21T09:28:53.005Z,33.20
2022-09-21T09:31:30.262Z,33.10
2022-09-21T09:34:11.031Z,33.10
2022-09-21T09:36:57.804Z,33.10
2022-09-21T09:39:31.772Z,33.00
2022-09-21T09:42:08.246Z,33.00
2022-09-21T09:44:46.413Z,33.00
2022-09-21T09:47:41.898Z,32.90
2022-09-21T09:50:18.485Z,32.90
2022-09-21T09:52:48.754Z,32.90
2022-09-21T09:55:23.975Z,32.90
2022-09-21T09:57:53.751Z,32.80
2022-09-21T10:00:24.034Z,32.80
2022-09-21T10:02:55.579Z,32.90
2022-09-21T10:05:42.651Z,32.90
2022-09-21T10:08:43.225Z,32.80
2022-09-21T10:11:18.927Z,32.90
2022-09-21T10:13:49.465Z,32.80
2022-09-21T10:16:25.135Z,32.80
2022-09-21T10:19:02.758Z,32.70
2022-09-21T10:21:53.818Z,32.70
2022-09-21T10:24:36.944Z,32.60
2022-09-21T10:27:15.229Z,32.60
2022-09-21T10:29:45.882Z,32.50
2022-09-21T10:32:15.233Z,32.50
2022-09-21T10:35:04.607Z,32.40
2022-09-21T10:37:42.496Z,32.30
2022-09-21T10:40:25.378Z,32.30
2022-09-21T10:42:57.369Z,32.30
2022-09-21T10:45:35.987Z,32.20
2022-09-21T10:48:07.644Z,32.10
2022-09-21T10:50:47.759Z,32.00
2022-09-21T10:53:19.359Z,32.00
2022-09-21T10:56:15.169Z,31.90
2022-09-21T10:59:22.913Z,31.90
2022-09-21T11:01:54.593Z,31.80
2022-09-21T11:04:29.978Z,31.70
2022-09-21T11:07:36.494Z,31.70
2022-09-21T11:10:34.254Z,31.60
2022-09-21T11:13:37.934Z,31.60
2022-09-21T11:16:27.778Z,31.50
2022-09-21T11:19:06.120Z,31.40
2022-09-21T11:21:59.381Z,31.40
2022-09-21T11:24:50.660Z,31.30
2022-09-21T11:27:30.018Z,31.30
2022-09-21T11:30:19.718Z,31.20
2022-09-21T11:33:10.908Z,31.20
2022-09-21T11:36:27.960Z,31.10
2022-09-21T11:39:13.543Z,31.10
2022-09-21T11:42:02.666Z,31.10
2022-09-21T11:45:18.413Z,31.00
2022-09-21T11:48:18.215Z,31.00
2022-09-21T11:51:21.209Z,30.90
2022-09-21T11:54:27.217Z,30.90
2022-09-21T11:57:23.015Z,30.80
2022-09-21T12:00:22.914Z,30.70
2022-09-21T12:03:10.108Z,30.70
2022-09-21T12:06:06.459Z,30.60
2022-09-21T12:08:53.432Z,30.50
2022-09-21T12:11:34.639Z,30.40
2022-09-21T12:14:03.472Z,30.30
2022-09-21T12:17:05.607Z,30.20
2022-09-21T12:19:35.152Z,30.00
2022-09-21T12:22:21.351Z,29.90
2022-09-21T12:24:59.678Z,29.70
2022-09-21T12:28:14.766Z,29.70
2022-09-21T12:30:47.952Z,29.60
2022-09-21T12:33:48.094Z,29.50
2022-09-21T12:36:21.980Z,29.40
2022-09-21T12:39:15.057Z,29.30
2022-09-21T12:42:18.308Z,29.20
2022-09-21T12:44:58.288Z,29.10
2022-09-21T12:47:38.946Z,29.00
2022-09-21T12:50:16.934Z,29.00
2022-09-21T12:52:45.946Z,28.90
2022-09-21T12:55:33.161Z,28.80
2022-09-21T12:58:42.372Z,28.80
2022-09-21T13:01:17.707Z,28.70
2022-09-21T13:04:20.347Z,28.70
2022-09-21T13:07:26.165Z,28.60
2022-09-21T13:09:55.306Z,28.50
2022-09-21T13:12:28.935Z,28.40
2022-09-21T13:15:14.936Z,28.30
2022-09-21T13:17:43.884Z,28.20
2022-09-21T13:20:21.732Z,28.10
2022-09-21T13:22:59.355Z,28.00
2022-09-21T13:25:30.966Z,27.90
2022-09-21T13:28:13.096Z,27.90
2022-09-21T13:30:46.278Z,27.80
2022-09-21T13:33:21.370Z,27.80
2022-09-21T13:35:53.349Z,27.70
2022-09-21T13:38:55.748Z,27.70
2022-09-21T13:41:45.765Z,27.70
2022-09-21T13:44:42.117Z,27.60
2022-09-21T13:47:13.237Z,27.60
2022-09-21T13:49:53.939Z,27.50
2022-09-21T13:52:32.414Z,27.50
2022-09-21T13:55:05.359Z,27.50
2022-09-21T13:57:43.905Z,27.50
2022-09-21T14:00:15.889Z,27.20
2022-09-21T14:02:52.782Z,26.80
2022-09-21T14:05:44.673Z,26.40
2022-09-21T14:08:16.722Z,26.10
2022-09-21T14:11:00.191Z,25.90
2022-09-21T14:14:00.663Z,25.70
2022-09-21T14:16:53.370Z,25.50
2022-09-21T14:19:22.340Z,25.30
2022-09-21T14:22:09.387Z,25.30
2022-09-21T14:24:46.158Z,25.20
2022-09-21T14:27:43.446Z,25.10
2022-09-21T14:30:23.512Z,24.90
2022-09-21T14:33:23.875Z,24.80
2022-09-21T14:35:54.086Z,24.70
2022-09-21T14:38:31.537Z,24.60
2022-09-21T14:41:08.651Z,24.50
2022-09-21T14:43:40.796Z,24.40
2022-09-21T14:46:28.155Z,24.40
2022-09-21T14:49:15.414Z,24.40
2022-09-21T14:52:20.197Z,24.40
2022-09-21T14:55:16.867Z,24.40
2022-09-21T14:58:07.234Z,24.40
2022-09-21T15:00:42.296Z,24.40
2022-09-21T15:03:32.852Z,24.50
2022-09-21T15:06:41.155Z,24.50
2022-09-21T15:09:55.088Z,24.50
2022-09-21T15:12:40.345Z,24.50
2022-09-21T15:15:25.102Z,24.60
2022-09-21T15:18:03.095Z,24.60
2022-09-21T15:20:33.468Z,24.60
2022-09-21T15:23:03.205Z,24.60
2022-09-21T15:25:35.372Z,24.60
2022-09-21T15:28:05.415Z,24.60
2022-09-21T15:30:42.196Z,24.60
2022-09-21T15:33:15.210Z,24.70
2022-09-21T15:35:48.520Z,24.60
2022-09-21T15:38:32.099Z,24.60
2022-09-21T15:41:04.300Z,24.60
2022-09-21T15:43:35.621Z,24.50
2022-09-21T15:46:07.256Z,24.50
2022-09-21T15:48:48.269Z,24.40
2022-09-21T15:51:25.840Z,24.30
2022-09-21T15:53:58.888Z,24.30
2022-09-21T15:56:30.034Z,24.20
2022-09-21T15:59:10.094Z,24.20
2022-09-21T16:01:48.800Z,24.10
2022-09-21T16:04:24.057Z,24.10
2022-09-21T16:07:08.004Z,24.10
2022-09-21T16:09:46.185Z,24.10
2022-09-21T16:12:40.482Z,24.00
2022-09-21T16:15:20.022Z,24.00
2022-09-21T16:18:03.992Z,24.00
2022-09-21T16:20:49.100Z,23.90
2022-09-21T16:23:26.676Z,23.90
2022-09-21T16:26:01.871Z,23.90
2022-09-21T16:28:43.523Z,23.80
2022-09-21T16:31:31.123Z,23.80
2022-09-21T16:34:02.798Z,23.80
2022-09-21T16:36:32.887Z,23.90
2022-09-21T16:39:08.639Z,23.90
2022-09-21T16:41:43.687Z,23.90
2022-09-21T16:44:21.853Z,24.00
2022-09-21T16:46:54.875Z,24.00
2022-09-21T16:49:30.216Z,23.90
2022-09-21T16:52:00.340Z,23.90
2022-09-21T16:54:30.099Z,23.90
2022-09-21T16:57:02.326Z,23.90
2022-09-21T16:59:31.672Z,23.90
2022-09-21T17:02:01.534Z,23.90
2022-09-21T17:04:33.731Z,23.90
2022-09-21T17:07:06.085Z,23.90
2022-09-21T17:09:39.456Z,23.90
2022-09-21T17:12:10.809Z,23.90
2022-09-21T17:14:43.062Z,23.80
2022-09-21T17:17:22.785Z,23.80
2022-09-21T17:19:54.037Z,23.80
2022-09-21T17:22:23.532Z,23.80
2022-09-21T17:24:55.854Z,23.80
2022-09-21T17:27:27.748Z,23.80
2022-09-21T17:29:57.601Z,23.80
2022-09-21T17:32:26.730Z,23.80
2022-09-21T17:35:27.697Z,23.80
2022-09-21T17:37:56.559Z,23.80
2022-09-21T17:40:25.967Z,23.80
2022-09-21T17:43:17.122Z,23.80
2022-09-21T17:45:55.353Z,23.80
2022-09-21T17:48:24.834Z,23.80
2022-09-21T17:50:54.129Z,23.90
2022-09-21T17:53:35.695Z,23.80
2022-09-21T17:56:19.504Z,23.80
2022-09-21T17:59:03.686Z,23.80
2022-09-21T18:01:34.960Z,23.80
2022-09-21T18:04:05.178Z,23.90
2022-09-21T18:06:35.355Z,23.90
2022-09-21T18:09:05.057Z,23.90
2022-09-21T18:11:48.967Z,24.00
2022-09-21T18:14:39.863Z,24.00
2022-09-21T18:17:26.968Z,24.10
2022-09-21T18:20:26.019Z,24.10
2022-09-21T18:23:20.175Z,24.10
2022-09-21T18:25:53.099Z,24.10
2022-09-21T18:28:47.140Z,24.10
2022-09-21T18:31:43.097Z,24.10
2022-09-21T18:34:45.743Z,24.10
2022-09-21T18:37:33.233Z,24.10
2022-09-21T18:40:40.408Z,24.00
2022-09-21T18:43:32.352Z,24.00
2022-09-21T18:46:08.090Z,24.00
2022-09-21T18:48:51.226Z,24.00
2022-09-21T18:51:45.640Z,24.00
2022-09-21T18:54:23.184Z,24.10
2022-09-21T18:56:52.245Z,24.00
2022-09-21T18:59:21.820Z,24.00
2022-09-21T19:01:51.711Z,24.00
2022-09-21T19:04:21.256Z,24.00
2022-09-21T19:06:59.089Z,24.00
2022-09-21T19:09:37.784Z,24.10
2022-09-21T19:12:28.279Z,24.10
2022-09-21T19:16:01.226Z,24.10
2022-09-21T19:18:42.302Z,24.10
2022-09-21T19:21:21.188Z,24.00
2022-09-21T19:24:08.238Z,24.00
2022-09-21T19:26:47.816Z,24.00
2022-09-21T19:29:53.233Z,24.00
2022-09-21T19:32:48.257Z,24.00
2022-09-21T19:35:23.765Z,24.00
2022-09-21T19:37:54.791Z,24.00
2022-09-21T19:40:28.534Z,24.00
2022-09-21T19:43:21.756Z,24.10
2022-09-21T19:46:27.654Z,24.10
2022-09-21T19:49:02.549Z,24.10
2022-09-21T19:51:37.335Z,24.10
2022-09-21T19:54:34.788Z,24.10
2022-09-21T19:57:27.254Z,24.20
2022-09-21T19:59:56.357Z,24.20
2022-09-21T20:02:50.047Z,24.20
2022-09-21T20:05:25.288Z,24.20
2022-09-21T20:08:15.305Z,24.20
2022-09-21T20:10:58.257Z,24.20
2022-09-21T20:13:39.420Z,24.30
2022-09-21T20:16:45.115Z,24.20
2022-09-21T20:19:45.682Z,24.20
2022-09-21T20:22:17.296Z,24.30
2022-09-21T20:25:10.940Z,24.30
2022-09-21T20:27:51.728Z,24.30
2022-09-21T20:30:23.671Z,24.40
2022-09-21T20:33:03.778Z,24.40
2022-09-21T20:35:32.930Z,24.30
2022-09-21T20:38:03.130Z,24.30
2022-09-21T20:40:33.092Z,24.30
2022-09-21T20:43:02.449Z,24.30
2022-09-21T20:45:33.335Z,24.30
2022-09-21T20:48:22.643Z,24.30
2022-09-21T20:50:52.472Z,24.30
2022-09-21T20:53:21.394Z,24.30
2022-09-21T20:55:58.564Z,24.30
2022-09-21T20:58:27.498Z,24.30
2022-09-21T21:00:59.119Z,24.30
2022-09-21T21:03:28.311Z,24.30
2022-09-21T21:06:11.956Z,24.30
2022-09-21T21:08:40.971Z,24.30
2022-09-21T21:11:11.859Z,24.30
2022-09-21T21:13:41.046Z,24.40
2022-09-21T21:16:12.376Z,24.40
2022-09-21T21:18:42.827Z,24.40
2022-09-21T21:21:12.075Z,24.40
2022-09-21T21:23:59.143Z,24.40
2022-09-21T21:26:44.223Z,24.50
2022-09-21T21:29:17.201Z,24.50
2022-09-21T21:31:48.865Z,24.50
2022-09-21T21:34:18.279Z,24.60
2022-09-21T21:36:47.241Z,24.60
2022-09-21T21:39:16.093Z,24.50
2022-09-21T21:41:45.019Z,24.50
2022-09-21T21:44:13.937Z,24.50
2022-09-21T21:46:43.062Z,24.40
2022-09-21T21:49:12.175Z,24.40
2022-09-21T21:51:41.235Z,24.40
2022-09-21T21:54:10.135Z,24.40
2022-09-21T21:56:39.290Z,24.40
2022-09-21T21:59:08.254Z,24.40
2022-09-21T22:01:37.164Z,24.40
2022-09-21T22:04:06.477Z,24.40
2022-09-21T22:06:36.965Z,24.40
2022-09-21T22:09:07.667Z,24.40
2022-09-21T22:11:37.245Z,24.30
2022-09-21T22:14:07.668Z,24.30
2022-09-21T22:16:39.095Z,24.30
2022-09-21T22:19:10.138Z,24.40
2022-09-21T22:21:50.379Z,24.40
2022-09-21T22:24:23.348Z,24.40
2022-09-21T22:26:52.313Z,24.40
2022-09-21T22:29:21.321Z,24.40
2022-09-21T22:31:51.397Z,24.40
2022-09-21T22:34:20.680Z,24.40
2022-09-21T22:36:49.700Z,24.30
2022-09-21T22:39:18.721Z,24.40
2022-09-21T22:41:47.568Z,24.40
2022-09-21T22:44:16.401Z,24.40
2022-09-21T22:46:45.279Z,24.50
2022-09-21T22:49:14.232Z,24.50
2022-09-21T22:51:43.088Z,24.40
2022-09-21T22:54:11.947Z,24.40
2022-09-21T22:56:40.762Z,24.40
2022-09-21T22:59:10.073Z,24.40
2022-09-21T23:01:41.096Z,24.40
2022-09-21T23:04:13.443Z,24.30
2022-09-21T23:06:45.398Z,24.30
2022-09-21T23:09:17.508Z,24.30
2022-09-21T23:11:49.060Z,24.30
2022-09-21T23:14:18.975Z,24.30
2022-09-21T23:16:47.937Z,24.30
2022-09-21T23:19:16.922Z,24.30
2022-09-21T23:21:48.151Z,24.30
2022-09-21T23:24:17.428Z,24.40
2022-09-21T23:26:46.921Z,24.40
2022-09-21T23:29:17.784Z,24.40
2022-09-21T23:31:47.099Z,24.40
2022-09-21T23:34:16.768Z,24.40
2022-09-21T23:36:46.608Z,24.40
2022-09-21T23:39:16.806Z,24.40
2022-09-21T23:41:45.998Z,24.40
2022-09-21T23:44:15.168Z,24.40
2022-09-21T23:46:44.442Z,24.40
2022-09-21T23:49:13.399Z,24.50
2022-09-21T23:51:42.899Z,24.50
2022-09-21T23:54:11.974Z,24.50
2022-09-21T23:56:40.866Z,24.50
2022-09-21T23:59:10.999Z,24.50
